createdAt,value
2022-10-01T00:01:17.028Z,84.41
2022-10-01T00:03:44.599Z,83.80
2022-10-01T00:06:20.425Z,84.63
2022-10-01T00:08:49.605Z,85.77
2022-10-01T00:11:20.913Z,85.38
2022-10-01T00:13:48.035Z,85.96
2022-10-01T00:16:18.058Z,86.91
2022-10-01T00:18:46.153Z,86.21
2022-10-01T00:21:15.987Z,85.27
2022-10-01T00:23:42.946Z,85.07
2022-10-01T00:26:17.526Z,84.16
2022-10-01T00:28:46.700Z,84.50
2022-10-01T00:31:15.370Z,84.37
2022-10-01T00:33:42.742Z,84.42
2022-10-01T00:36:11.159Z,84.24
2022-10-01T00:38:40.275Z,85.12
2022-10-01T00:41:08.616Z,84.90
2022-10-01T00:43:40.137Z,85.10
2022-10-01T00:46:09.602Z,85.00
2022-10-01T00:48:47.807Z,85.57
2022-10-01T00:51:14.980Z,85.57
2022-10-01T00:53:44.680Z,85.95
2022-10-01T00:56:11.482Z,86.11
2022-10-01T00:58:39.445Z,85.56
2022-10-01T01:01:06.285Z,85.52
2022-10-01T01:03:32.923Z,85.27
2022-10-01T01:05:59.701Z,84.79
2022-10-01T01:08:26.461Z,84.32
2022-10-01T01:11:04.026Z,83.87
2022-10-01T01:13:50.294Z,83.92
2022-10-01T01:16:34.049Z,84.33
2022-10-01T01:19:26.989Z,85.46
2022-10-01T01:22:00.471Z,86.12
2022-10-01T01:24:46.526Z,87.27
2022-10-01T01:27:46.007Z,86.86
2022-10-01T01:30:15.859Z,87.74
2022-10-01T01:32:42.861Z,87.76
2022-10-01T01:35:14.109Z,88.17
2022-10-01T01:37:46.691Z,87.33
2022-10-01T01:40:16.483Z,87.85
2022-10-01T01:42:46.215Z,87.15
2022-10-01T01:45:20.280Z,87.74
2022-10-01T01:47:47.419Z,87.97
2022-10-01T01:50:16.963Z,88.05
2022-10-01T01:52:43.944Z,88.24
2022-10-01T01:55:11.026Z,88.31
2022-10-01T01:57:43.789Z,88.34
2022-10-01T02:00:12.764Z,88.20
2022-10-01T02:02:43.133Z,87.84
2022-10-01T02:05:14.009Z,88.41
2022-10-01T02:07:59.012Z,88.73
2022-10-01T02:10:52.670Z,88.32
2022-10-01T02:13:25.552Z,88.74
2022-10-01T02:16:11.321Z,89.23
2022-10-01T02:18:53.005Z,88.63
2022-10-01T02:21:24.184Z,88.64
2022-10-01T02:23:58.495Z,89.81
2022-10-01T02:26:28.833Z,89.36
2022-10-01T02:29:03.849Z,90.13
2022-10-01T02:31:31.151Z,89.60
2022-10-01T02:34:01.199Z,89.85
2022-10-01T02:36:30.888Z,89.93
2022-10-01T02:38:59.650Z,89.85
2022-10-01T02:41:32.336Z,90.14
2022-10-01T02:44:10.367Z,90.29
2022-10-01T02:46:52.275Z,90.43
2022-10-01T02:49:19.418Z,91.58
2022-10-01T02:52:15.479Z,91.25
2022-10-01T02:54:58.765Z,91.11
2022-10-01T02:57:29.703Z,90.54
2022-10-01T03:00:01.958Z,90.76
2022-10-01T03:02:31.742Z,90.42
2022-10-01T03:04:59.622Z,90.03
2022-10-01T03:07:28.060Z,89.12
2022-10-01T03:09:54.780Z,89.29
2022-10-01T03:12:22.526Z,89.13
2022-10-01T03:14:50.037Z,88.92
2022-10-01T03:17:17.661Z,89.31
2022-10-01T03:19:44.416Z,90.09
2022-10-01T03:22:14.321Z,90.69
2022-10-01T03:24:41.067Z,89.97
2022-10-01T03:27:07.747Z,90.74
2022-10-01T03:29:34.480Z,91.03
2022-10-01T03:32:01.694Z,91.29
2022-10-01T03:34:28.535Z,91.67
2022-10-01T03:36:55.167Z,90.56
2022-10-01T03:39:21.972Z,90.82
2022-10-01T03:41:48.746Z,91.43
2022-10-01T03:44:18.687Z,91.14
2022-10-01T03:46:45.615Z,91.16
2022-10-01T03:49:12.296Z,91.34
2022-10-01T03:51:39.064Z,91.58
2022-10-01T03:54:08.176Z,92.66
2022-10-01T03:56:36.012Z,93.00
2022-10-01T03:59:02.753Z,92.70
2022-10-01T04:01:30.849Z,93.15
2022-10-01T04:03:57.687Z,92.77
2022-10-01T04:06:24.437Z,92.25
2022-10-01T04:08:51.129Z,92.85
2022-10-01T04:11:17.856Z,93.06
2022-10-01T04:13:44.517Z,93.29
2022-10-01T04:16:11.352Z,93.06
2022-10-01T04:18:38.182Z,93.34
2022-10-01T04:21:05.245Z,93.05
2022-10-01T04:23:31.939Z,92.59
2022-10-01T04:26:00.907Z,92.68
2022-10-01T04:28:28.099Z,92.42
2022-10-01T04:31:14.915Z,92.32
2022-10-01T04:33:42.085Z,92.35
2022-10-01T04:36:08.920Z,91.99
2022-10-01T04:38:35.783Z,91.84
2022-10-01T04:41:02.511Z,91.83
2022-10-01T04:43:29.371Z,91.52
2022-10-01T04:45:55.990Z,92.45
2022-10-01T04:48:22.817Z,92.28
2022-10-01T04:50:49.467Z,92.20
2022-10-01T04:53:16.180Z,91.97
2022-10-01T04:55:43.838Z,91.52
2022-10-01T04:58:10.634Z,91.98
2022-10-01T05:00:37.418Z,91.32
2022-10-01T05:03:04.276Z,91.06
2022-10-01T05:05:34.890Z,90.31
2022-10-01T05:08:02.463Z,89.94
2022-10-01T05:10:29.686Z,90.26
2022-10-01T05:12:56.829Z,89.41
2022-10-01T05:15:23.659Z,89.55
2022-10-01T05:17:50.481Z,88.27
2022-10-01T05:20:19.978Z,88.42
2022-10-01T05:22:49.004Z,88.17
2022-10-01T05:25:16.843Z,88.33
2022-10-01T05:27:43.747Z,88.20
2022-10-01T05:30:12.732Z,87.87
2022-10-01T05:32:39.946Z,87.70
2022-10-01T05:35:07.666Z,87.13
2022-10-01T05:37:35.269Z,87.16
2022-10-01T05:40:02.440Z,86.84
2022-10-01T05:42:29.137Z,86.93
2022-10-01T05:44:56.159Z,86.71
2022-10-01T05:47:23.304Z,86.84
2022-10-01T05:49:50.043Z,86.71
2022-10-01T05:52:16.808Z,87.32
2022-10-01T05:54:43.593Z,87.29
2022-10-01T05:57:10.770Z,87.05
2022-10-01T05:59:37.542Z,87.76
2022-10-01T06:02:04.870Z,87.39
2022-10-01T06:04:31.618Z,87.97
2022-10-01T06:06:58.315Z,87.43
2022-10-01T06:09:25.279Z,88.38
2022-10-01T06:11:52.104Z,87.52
2022-10-01T06:14:18.986Z,87.69
2022-10-01T06:16:47.023Z,87.84
2022-10-01T06:19:13.900Z,88.44
2022-10-01T06:21:42.880Z,88.77
2022-10-01T06:24:09.641Z,89.03
2022-10-01T06:26:36.829Z,88.75
2022-10-01T06:29:03.678Z,89.05
2022-10-01T06:31:30.646Z,89.05
2022-10-01T06:33:57.476Z,89.92
2022-10-01T06:36:48.999Z,89.88
2022-10-01T06:39:15.775Z,90.23
2022-10-01T06:41:43.515Z,90.09
2022-10-01T06:44:15.107Z,90.17
2022-10-01T06:46:41.810Z,89.48
2022-10-01T06:49:08.568Z,90.01
2022-10-01T06:51:53.867Z,89.70
2022-10-01T06:54:20.569Z,88.95
2022-10-01T06:56:47.286Z,89.38
2022-10-01T06:59:13.961Z,89.51
2022-10-01T07:01:40.838Z,88.88
2022-10-01T07:04:07.618Z,89.21
2022-10-01T07:06:34.334Z,88.95
2022-10-01T07:09:03.839Z,88.91
2022-10-01T07:11:30.561Z,88.84
2022-10-01T07:13:57.674Z,88.60
2022-10-01T07:16:24.501Z,88.94
2022-10-01T07:18:52.101Z,88.51
2022-10-01T07:21:18.806Z,88.81
2022-10-01T07:23:45.488Z,88.25
2022-10-01T07:26:12.230Z,88.17
2022-10-01T07:28:38.946Z,87.75
2022-10-01T07:31:11.342Z,87.59
2022-10-01T07:33:39.351Z,87.90
2022-10-01T07:36:08.217Z,87.42
2022-10-01T07:38:35.378Z,87.50
2022-10-01T07:41:03.433Z,87.53
2022-10-01T07:43:31.583Z,87.09
2022-10-01T07:46:00.187Z,86.82
2022-10-01T07:48:27.988Z,86.72
2022-10-01T07:50:54.732Z,86.10
2022-10-01T07:53:24.005Z,86.27
2022-10-01T07:55:50.737Z,85.53
2022-10-01T07:58:18.760Z,85.21
2022-10-01T08:00:45.655Z,84.85
2022-10-01T08:03:12.378Z,84.25
2022-10-01T08:05:42.189Z,83.91
2022-10-01T08:08:09.706Z,83.32
2022-10-01T08:10:38.128Z,83.58
2022-10-01T08:13:16.388Z,83.62
2022-10-01T08:15:45.099Z,83.24
2022-10-01T08:18:12.776Z,82.04
2022-10-01T08:20:39.698Z,78.39
2022-10-01T08:23:11.621Z,74.73
2022-10-01T08:25:39.794Z,75.52
2022-10-01T08:28:08.423Z,74.65
2022-10-01T08:30:39.859Z,76.20
2022-10-01T08:33:06.518Z,76.88
2022-10-01T08:35:33.980Z,76.63
2022-10-01T08:38:02.092Z,75.70
2022-10-01T08:40:29.443Z,75.10
2022-10-01T08:43:33.380Z,73.54
2022-10-01T08:46:23.084Z,70.16
2022-10-01T08:49:00.792Z,68.91
2022-10-01T08:52:03.728Z,68.10
2022-10-01T08:55:17.023Z,68.08
2022-10-01T08:57:52.016Z,69.02
2022-10-01T09:00:19.743Z,68.18
2022-10-01T09:02:47.832Z,67.31
2022-10-01T09:05:31.969Z,65.78
2022-10-01T09:08:20.060Z,65.64
2022-10-01T09:11:01.652Z,68.90
2022-10-01T09:13:57.544Z,67.63
2022-10-01T09:16:33.762Z,64.72
2022-10-01T09:19:25.974Z,66.49
2022-10-01T09:22:14.533Z,65.43
2022-10-01T09:24:48.041Z,65.57
2022-10-01T09:27:17.555Z,64.21
2022-10-01T09:29:58.412Z,65.31
2022-10-01T09:32:31.064Z,66.12
2022-10-01T09:35:04.465Z,67.52
2022-10-01T09:37:57.741Z,68.82
2022-10-01T09:40:46.482Z,69.58
2022-10-01T09:43:14.182Z,68.27
2022-10-01T09:45:41.251Z,69.05
2022-10-01T09:48:16.095Z,67.90
2022-10-01T09:50:56.426Z,66.40
2022-10-01T09:53:29.038Z,67.43
2022-10-01T09:56:02.025Z,70.75
2022-10-01T09:58:30.195Z,71.77
2022-10-01T10:00:57.646Z,71.58
2022-10-01T10:03:29.958Z,72.85
2022-10-01T10:05:59.969Z,72.38
2022-10-01T10:08:33.745Z,72.34
2022-10-01T10:11:03.034Z,72.51
2022-10-01T10:13:31.951Z,71.88
2022-10-01T10:16:00.342Z,72.46
2022-10-01T10:18:39.259Z,72.75
2022-10-01T10:21:15.129Z,73.22
2022-10-01T10:23:54.203Z,72.07
2022-10-01T10:26:42.472Z,72.62
2022-10-01T10:29:26.743Z,72.24
2022-10-01T10:31:55.550Z,72.31
2022-10-01T10:34:35.854Z,72.63
2022-10-01T10:37:07.050Z,72.75
2022-10-01T10:39:39.180Z,73.67
2022-10-01T10:42:07.323Z,72.95
2022-10-01T10:44:39.648Z,72.01
2022-10-01T10:47:11.056Z,72.19
2022-10-01T10:50:16.196Z,70.96
2022-10-01T10:52:45.683Z,67.52
2022-10-01T10:55:23.616Z,64.29
2022-10-01T10:57:52.399Z,63.31
2022-10-01T11:00:25.197Z,63.31
2022-10-01T11:03:04.275Z,62.22
2022-10-01T11:05:33.862Z,59.36
2022-10-01T11:08:06.759Z,60.93
2022-10-01T11:10:48.792Z,61.14
2022-10-01T11:13:34.161Z,60.69
2022-10-01T11:16:32.533Z,60.10
2022-10-01T11:19:08.795Z,61.06
2022-10-01T11:21:58.136Z,62.58
2022-10-01T11:24:59.026Z,61.89
2022-10-01T11:27:43.582Z,63.83
2022-10-01T11:30:17.941Z,63.84
2022-10-01T11:32:54.974Z,62.88
2022-10-01T11:35:34.425Z,61.99
2022-10-01T11:38:17.109Z,61.26
2022-10-01T11:41:06.975Z,60.85
2022-10-01T11:43:42.421Z,60.45
2022-10-01T11:46:23.347Z,60.72
2022-10-01T11:49:21.296Z,59.93
2022-10-01T11:52:03.738Z,57.48
2022-10-01T11:54:34.837Z,54.60
2022-10-01T11:57:23.662Z,55.16
2022-10-01T12:00:07.668Z,54.17
2022-10-01T12:02:58.242Z,55.64
2022-10-01T12:05:31.356Z,55.17
2022-10-01T12:08:09.368Z,53.83
2022-10-01T12:10:55.015Z,55.14
2022-10-01T12:13:33.257Z,55.88
2022-10-01T12:16:23.175Z,54.44
2022-10-01T12:19:14.390Z,54.58
2022-10-01T12:21:51.851Z,54.75
2022-10-01T12:24:30.918Z,54.79
2022-10-01T12:27:29.513Z,55.72
2022-10-01T12:30:18.040Z,55.87
2022-10-01T12:32:59.595Z,56.88
2022-10-01T12:35:41.263Z,56.46
2022-10-01T12:38:26.036Z,55.36
2022-10-01T12:41:02.297Z,56.23
2022-10-01T12:43:41.149Z,55.97
2022-10-01T12:46:33.689Z,56.09
2022-10-01T12:49:28.505Z,55.85
2022-10-01T12:52:21.824Z,57.02
2022-10-01T12:55:13.891Z,56.53
2022-10-01T12:58:08.750Z,57.27
2022-10-01T13:00:43.665Z,57.13
2022-10-01T13:03:25.226Z,58.13
2022-10-01T13:05:59.460Z,58.45
2022-10-01T13:08:47.605Z,58.12
2022-10-01T13:11:50.369Z,58.34
2022-10-01T13:14:19.001Z,58.89
2022-10-01T13:16:45.658Z,57.89
2022-10-01T13:19:49.882Z,56.32
2022-10-01T13:22:33.972Z,56.96
2022-10-01T13:25:01.013Z,57.87
2022-10-01T13:30:27.336Z,57.65
2022-10-01T13:32:57.725Z,57.59
2022-10-01T13:35:36.720Z,57.75
2022-10-01T13:38:17.456Z,57.59
2022-10-01T13:40:44.692Z,56.46
2022-10-01T13:43:23.076Z,56.76
2022-10-01T13:45:52.545Z,55.04
2022-10-01T13:48:29.271Z,55.36
2022-10-01T13:51:04.333Z,55.59
2022-10-01T13:53:37.929Z,55.40
2022-10-01T13:56:05.607Z,55.21
2022-10-01T13:58:40.931Z,55.26
2022-10-01T14:01:29.065Z,55.40
2022-10-01T14:04:04.416Z,55.54
2022-10-01T14:06:42.167Z,54.95
2022-10-01T14:09:34.491Z,55.47
2022-10-01T14:12:27.249Z,54.57
2022-10-01T14:15:18.532Z,55.62
2022-10-01T14:17:49.965Z,55.68
2022-10-01T14:20:18.201Z,55.11
2022-10-01T14:23:12.991Z,55.51
2022-10-01T14:26:02.118Z,56.22
2022-10-01T14:28:34.857Z,54.37
2022-10-01T14:31:19.249Z,55.23
2022-10-01T14:33:52.173Z,55.01
2022-10-01T14:36:32.532Z,53.95
2022-10-01T14:39:16.437Z,52.25
2022-10-01T14:41:44.274Z,52.39
2022-10-01T14:44:32.008Z,52.86
2022-10-01T14:47:00.582Z,53.02
2022-10-01T14:49:32.415Z,53.52
2022-10-01T14:52:07.982Z,53.06
2022-10-01T14:54:57.846Z,54.02
2022-10-01T14:57:35.694Z,53.83
2022-10-01T15:00:11.261Z,53.66
2022-10-01T15:03:13.244Z,53.45
2022-10-01T15:05:40.087Z,54.91
2022-10-01T15:08:20.593Z,54.92
2022-10-01T15:10:58.196Z,55.25
2022-10-01T15:13:32.656Z,54.60
2022-10-01T15:16:00.037Z,55.60
2022-10-01T15:18:27.643Z,54.71
2022-10-01T15:21:04.753Z,54.36
2022-10-01T15:23:38.217Z,54.92
2022-10-01T15:26:08.944Z,54.99
2022-10-01T15:28:36.833Z,54.02
2022-10-01T15:31:07.023Z,54.48
2022-10-01T15:33:40.456Z,53.68
2022-10-01T15:36:17.624Z,53.64
2022-10-01T15:38:47.356Z,53.15
2022-10-01T15:41:33.377Z,52.93
2022-10-01T15:44:05.538Z,53.16
2022-10-01T15:46:35.629Z,52.75
2022-10-01T15:49:12.021Z,53.39
2022-10-01T15:52:08.465Z,52.88
2022-10-01T15:54:36.150Z,53.53
2022-10-01T15:57:03.816Z,53.51
2022-10-01T15:59:30.802Z,54.11
2022-10-01T16:01:57.798Z,54.11
2022-10-01T16:04:24.623Z,54.17
2022-10-01T16:06:52.071Z,55.28
2022-10-01T16:09:23.970Z,54.96
2022-10-01T16:12:15.372Z,55.45
2022-10-01T16:14:44.237Z,55.57
2022-10-01T16:17:17.300Z,55.80
2022-10-01T16:19:52.815Z,57.58
2022-10-01T16:22:24.435Z,58.16
2022-10-01T16:25:00.996Z,57.39
2022-10-01T16:27:34.497Z,58.70
2022-10-01T16:30:07.191Z,58.27
2022-10-01T16:32:34.529Z,59.04
2022-10-01T16:35:23.137Z,59.89
2022-10-01T16:37:53.385Z,59.86
2022-10-01T16:40:23.884Z,59.72
2022-10-01T16:42:51.634Z,60.00
2022-10-01T16:45:22.668Z,60.73
2022-10-01T16:47:49.470Z,61.14
2022-10-01T16:50:18.675Z,61.54
2022-10-01T16:52:45.747Z,61.75
2022-10-01T16:55:22.706Z,62.18
2022-10-01T16:57:50.480Z,62.33
2022-10-01T17:00:19.237Z,62.84
2022-10-01T17:02:46.026Z,63.40
2022-10-01T17:05:17.735Z,63.51
2022-10-01T17:07:45.242Z,63.76
2022-10-01T17:10:13.635Z,64.21
2022-10-01T17:12:41.646Z,63.98
2022-10-01T17:15:15.787Z,64.92
2022-10-01T17:17:42.895Z,64.85
2022-10-01T17:20:10.150Z,65.85
2022-10-01T17:22:37.470Z,65.69
2022-10-01T17:25:04.771Z,66.34
2022-10-01T17:27:31.575Z,66.11
2022-10-01T17:29:58.322Z,66.26
2022-10-01T17:32:25.075Z,66.11
2022-10-01T17:34:53.728Z,64.45
2022-10-01T17:37:23.880Z,64.58
2022-10-01T17:39:51.070Z,64.97
2022-10-01T17:42:18.123Z,64.80
2022-10-01T17:44:45.294Z,64.59
2022-10-01T17:47:12.067Z,64.63
2022-10-01T17:49:38.825Z,64.72
2022-10-01T17:52:05.810Z,65.39
2022-10-01T17:54:33.272Z,64.77
2022-10-01T17:57:00.099Z,64.70
2022-10-01T17:59:26.811Z,64.79
2022-10-01T18:01:54.480Z,64.84
2022-10-01T18:04:21.392Z,64.86
2022-10-01T18:06:49.076Z,65.40
2022-10-01T18:09:15.906Z,65.83
2022-10-01T18:11:42.654Z,66.60
2022-10-01T18:14:09.393Z,66.58
2022-10-01T18:16:36.387Z,67.32
2022-10-01T18:21:51.177Z,66.27
2022-10-01T18:24:18.188Z,66.94
2022-10-01T18:26:45.844Z,67.11
2022-10-01T18:29:21.881Z,67.57
2022-10-01T18:32:01.969Z,67.89
2022-10-01T18:35:04.032Z,68.46
2022-10-01T18:37:39.113Z,68.42
2022-10-01T18:40:29.101Z,69.37
2022-10-01T18:43:12.328Z,69.51
2022-10-01T18:45:56.692Z,69.42
2022-10-01T18:49:00.594Z,69.58
2022-10-01T18:51:39.163Z,69.71
2022-10-01T18:54:22.196Z,70.21
2022-10-01T18:57:13.447Z,70.61
2022-10-01T18:59:58.137Z,70.42
2022-10-01T19:02:34.000Z,70.66
2022-10-01T19:05:23.333Z,70.36
2022-10-01T19:07:52.999Z,70.50
2022-10-01T19:10:41.988Z,70.17
2022-10-01T19:13:21.941Z,70.24
2022-10-01T19:16:08.472Z,70.39
2022-10-01T19:18:41.303Z,70.67
2022-10-01T19:21:34.595Z,70.90
2022-10-01T19:24:33.465Z,71.26
2022-10-01T19:27:13.647Z,71.29
2022-10-01T19:29:46.323Z,71.77
2022-10-01T19:32:21.205Z,72.27
2022-10-01T19:35:23.133Z,72.34
2022-10-01T19:38:32.523Z,73.37
2022-10-01T19:41:16.146Z,73.80
2022-10-01T19:44:04.665Z,74.53
2022-10-01T19:46:38.910Z,74.47
2022-10-01T19:49:09.044Z,74.34
2022-10-01T19:51:40.499Z,74.20
2022-10-01T19:54:12.159Z,74.29
2022-10-01T19:56:39.998Z,74.67
2022-10-01T19:59:10.813Z,75.66
2022-10-01T20:01:54.633Z,74.87
2022-10-01T20:04:38.320Z,75.67
2022-10-01T20:07:34.004Z,75.85
2022-10-01T20:10:20.886Z,75.77
2022-10-01T20:13:13.734Z,75.51
2022-10-01T20:16:01.973Z,75.74
2022-10-01T20:18:41.092Z,76.41
2022-10-01T20:21:18.533Z,74.94
2022-10-01T20:24:12.925Z,74.89
2022-10-01T20:26:46.660Z,76.06
2022-10-01T20:29:55.875Z,75.39
2022-10-01T20:32:30.676Z,75.38
2022-10-01T20:35:06.464Z,76.36
2022-10-01T20:38:00.593Z,76.67
2022-10-01T20:40:44.425Z,76.30
2022-10-01T20:43:38.941Z,76.47
2022-10-01T20:46:12.867Z,76.01
2022-10-01T20:48:44.379Z,75.65
2022-10-01T20:51:46.918Z,75.33
2022-10-01T20:54:24.198Z,75.08
2022-10-01T20:57:01.893Z,74.81
2022-10-01T20:59:41.441Z,74.39
2022-10-01T21:02:43.991Z,74.14
2022-10-01T21:05:22.132Z,74.43
2022-10-01T21:08:05.266Z,75.02
2022-10-01T21:10:42.426Z,74.79
2022-10-01T21:13:30.619Z,75.16
2022-10-01T21:16:08.983Z,75.29
2022-10-01T21:18:54.013Z,75.44
2022-10-01T21:21:35.293Z,75.35
2022-10-01T21:24:09.231Z,76.02
2022-10-01T21:26:59.502Z,75.70
2022-10-01T21:29:34.111Z,75.21
2022-10-01T21:32:33.771Z,75.13
2022-10-01T21:35:22.863Z,75.47
2022-10-01T21:38:31.516Z,75.81
2022-10-01T21:41:16.161Z,76.22
2022-10-01T21:44:07.739Z,76.05
2022-10-01T21:46:58.239Z,76.61
2022-10-01T21:49:39.775Z,76.58
2022-10-01T21:52:08.131Z,76.63
2022-10-01T21:55:05.753Z,77.55
2022-10-01T21:57:57.220Z,77.73
2022-10-01T22:00:28.679Z,77.65
2022-10-01T22:03:16.351Z,77.47
2022-10-01T22:06:12.887Z,77.40
2022-10-01T22:08:45.963Z,77.48
2022-10-01T22:11:18.789Z,77.79
2022-10-01T22:13:54.944Z,78.38
2022-10-01T22:16:26.261Z,78.09
2022-10-01T22:18:55.906Z,78.14
2022-10-01T22:21:44.707Z,78.04
2022-10-01T22:24:16.232Z,78.53
2022-10-01T22:26:53.893Z,78.76
2022-10-01T22:29:26.463Z,78.74
2022-10-01T22:31:58.438Z,78.89
2022-10-01T22:34:33.532Z,78.82
2022-10-01T22:37:12.845Z,78.86
2022-10-01T22:39:46.052Z,79.34
2022-10-01T22:42:22.468Z,78.96
2022-10-01T22:44:49.160Z,78.73
2022-10-01T22:47:31.077Z,78.71
2022-10-01T22:50:24.903Z,78.26
2022-10-01T22:53:07.910Z,78.09
2022-10-01T22:55:54.560Z,78.80
2022-10-01T22:58:48.993Z,78.42
2022-10-01T23:01:18.652Z,79.24
2022-10-01T23:04:22.617Z,78.25
2022-10-01T23:07:01.644Z,78.53
2022-10-01T23:09:55.115Z,78.17
2022-10-01T23:12:30.767Z,78.23
2022-10-01T23:15:32.839Z,79.26
2022-10-01T23:18:06.880Z,79.50
2022-10-01T23:20:39.949Z,80.05
2022-10-01T23:23:25.693Z,79.71
2022-10-01T23:25:55.421Z,79.61
2022-10-01T23:28:49.786Z,79.79
2022-10-01T23:31:48.203Z,80.16
2022-10-01T23:34:40.346Z,80.25
2022-10-01T23:37:28.680Z,79.96
2022-10-01T23:40:00.161Z,79.75
2022-10-01T23:42:59.700Z,79.68
2022-10-01T23:45:40.044Z,80.10
2022-10-01T23:48:23.355Z,79.50
2022-10-01T23:51:01.640Z,79.40
2022-10-01T23:53:38.019Z,79.57
2022-10-01T23:56:30.295Z,79.03
2022-10-01T23:59:12.825Z,78.92
